createdAt,value
2023-03-17T00:01:55.972Z,101157.97
2023-03-17T00:04:25.170Z,101159.22
2023-03-17T00:06:53.079Z,101162.16
2023-03-17T00:09:22.327Z,101167.44
2023-03-17T00:11:50.363Z,101165.38
2023-03-17T00:14:18.899Z,101167.06
2023-03-17T00:16:50.029Z,101158.56
2023-03-17T00:19:32.367Z,101165.53
2023-03-17T00:22:06.109Z,101153.94
2023-03-17T00:24:33.650Z,101154.28
2023-03-17T00:27:01.228Z,101142.22
2023-03-17T00:29:28.250Z,101139.84
2023-03-17T00:31:57.657Z,101143.38
2023-03-17T00:34:24.671Z,101141.91
2023-03-17T00:36:52.008Z,101144.19
2023-03-17T00:39:19.076Z,101144.19
2023-03-17T00:44:14.493Z,101135.34
2023-03-17T00:46:42.135Z,101134.22
2023-03-17T00:49:22.195Z,101129.47
2023-03-17T00:51:50.695Z,101128.78
2023-03-17T00:54:20.725Z,101125.41
2023-03-17T00:56:49.655Z,101130.81
2023-03-17T00:59:32.054Z,101122.66
2023-03-17T01:01:59.774Z,101125.50
2023-03-17T01:04:26.767Z,101122.78
2023-03-17T01:06:54.324Z,101128.22
2023-03-17T01:09:26.301Z,101124.94
2023-03-17T01:11:55.130Z,101118.25
2023-03-17T01:14:22.721Z,101110.53
2023-03-17T01:16:50.607Z,101117.56
2023-03-17T01:19:18.085Z,101124.50
2023-03-17T01:21:46.471Z,101120.53
2023-03-17T01:24:14.560Z,101109.06
2023-03-17T01:26:41.652Z,101111.91
2023-03-17T01:29:09.099Z,101110.31
2023-03-17T01:31:36.418Z,101118.97
2023-03-17T01:34:05.793Z,101118.03
2023-03-17T01:36:32.807Z,101113.50
2023-03-17T01:38:59.847Z,101120.19
2023-03-17T01:41:26.868Z,101125.78
2023-03-17T01:43:53.949Z,101108.88
2023-03-17T01:46:35.403Z,101124.41
2023-03-17T01:49:33.162Z,101124.41
2023-03-17T01:52:11.816Z,101118.97
2023-03-17T01:54:52.493Z,101129.44
2023-03-17T01:57:30.370Z,101126.91
2023-03-17T02:00:05.449Z,101132.38
2023-03-17T02:02:37.812Z,101127.47
2023-03-17T02:05:09.855Z,101128.94
2023-03-17T02:07:37.636Z,101123.19
2023-03-17T02:10:06.929Z,101123.88
2023-03-17T02:12:36.025Z,101120.22
2023-03-17T02:15:03.498Z,101128.59
2023-03-17T02:17:30.585Z,101131.56
2023-03-17T02:20:11.760Z,101133.13
2023-03-17T02:22:38.754Z,101125.22
2023-03-17T02:25:06.551Z,101130.44
2023-03-17T02:27:39.583Z,101143.13
2023-03-17T02:30:10.064Z,101138.59
2023-03-17T02:32:37.869Z,101134.63
2023-03-17T02:35:07.292Z,101137.47
2023-03-17T02:37:34.765Z,101136.44
2023-03-17T02:40:02.973Z,101135.31
2023-03-17T02:42:30.017Z,101137.03
2023-03-17T02:44:57.535Z,101132.44
2023-03-17T02:47:24.617Z,101137.56
2023-03-17T02:49:51.980Z,101140.06
2023-03-17T02:52:19.061Z,101136.53
2023-03-17T02:54:46.234Z,101133.56
2023-03-17T02:57:13.243Z,101137.66
2023-03-17T02:59:40.425Z,101144.94
2023-03-17T03:02:07.446Z,101155.38
2023-03-17T03:04:34.864Z,101148.09
2023-03-17T03:07:02.126Z,101147.75
2023-03-17T03:09:29.830Z,101163.66
2023-03-17T03:11:56.931Z,101163.28
2023-03-17T03:14:24.455Z,101162.16
2023-03-17T03:16:52.288Z,101168.19
2023-03-17T03:19:19.295Z,101164.19
2023-03-17T03:21:46.334Z,101171.22
2023-03-17T03:24:13.532Z,101176.59
2023-03-17T03:26:41.374Z,101168.69
2023-03-17T03:29:09.148Z,101172.25
2023-03-17T03:31:36.129Z,101173.13
2023-03-17T03:34:03.190Z,101173.03
2023-03-17T03:36:30.422Z,101174.06
2023-03-17T03:38:58.236Z,101178.50
2023-03-17T03:44:11.016Z,101183.47
2023-03-17T03:46:38.059Z,101183.00
2023-03-17T03:49:05.095Z,101179.72
2023-03-17T03:51:32.123Z,101173.41
2023-03-17T03:53:59.253Z,101167.28
2023-03-17T04:43:09.114Z,101184.22
2023-03-17T04:45:41.175Z,101190.75
2023-03-17T04:48:08.245Z,101188.00
2023-03-17T04:50:40.933Z,101200.19
2023-03-17T04:53:09.200Z,101186.59
2023-03-17T05:24:45.465Z,101184.97
2023-03-17T05:33:03.546Z,101190.00
2023-03-17T05:35:30.709Z,101190.75
2023-03-17T05:44:20.428Z,101190.38
2023-03-17T05:46:47.615Z,101191.28
2023-03-17T06:12:34.398Z,101178.78
2023-03-17T06:15:01.414Z,101184.78
2023-03-17T06:17:28.752Z,101187.66
2023-03-17T06:23:03.466Z,101191.38
2023-03-17T06:25:41.112Z,101186.63
2023-03-17T06:28:08.215Z,101177.81
2023-03-17T06:55:15.250Z,101191.81
2023-03-17T06:57:42.281Z,101198.25
2023-03-17T07:00:12.607Z,101207.88
2023-03-17T07:02:40.134Z,101205.75
2023-03-17T07:05:08.306Z,101202.25
2023-03-17T07:07:38.831Z,101188.91
2023-03-17T07:10:07.145Z,101188.19
2023-03-17T07:12:34.326Z,101189.41
2023-03-17T07:15:01.638Z,101179.59
2023-03-17T07:17:28.973Z,101181.97
2023-03-17T07:19:56.110Z,101181.25
2023-03-17T07:22:23.367Z,101178.75
2023-03-17T07:24:50.359Z,101185.31
2023-03-17T07:27:17.454Z,101181.13
2023-03-17T07:29:44.532Z,101171.69
2023-03-17T07:32:11.963Z,101174.38
2023-03-17T07:37:33.648Z,101183.31
2023-03-17T07:40:00.724Z,101169.66
2023-03-17T07:42:29.011Z,101167.28
2023-03-17T08:02:16.987Z,101160.78
2023-03-17T08:09:47.846Z,101159.59
2023-03-17T08:12:15.078Z,101155.63
2023-03-17T08:14:42.129Z,101148.72
2023-03-17T08:17:09.184Z,101150.19
2023-03-17T08:19:37.438Z,101152.81
2023-03-17T08:22:05.090Z,101158.25
2023-03-17T08:24:32.703Z,101160.81
2023-03-17T08:27:00.974Z,101161.16
2023-03-17T08:29:29.064Z,101173.38
2023-03-17T08:31:57.344Z,101168.50
2023-03-17T08:34:26.396Z,101164.03
2023-03-17T08:36:53.479Z,101177.47
2023-03-17T08:39:20.591Z,101177.31
2023-03-17T08:41:47.787Z,101189.50
2023-03-17T08:44:15.122Z,101191.47
2023-03-17T08:46:42.545Z,101192.63
2023-03-17T08:49:10.548Z,101204.13
2023-03-17T08:51:38.805Z,101195.22
2023-03-17T08:54:06.952Z,101195.28
2023-03-17T08:56:36.992Z,101183.78
2023-03-17T09:05:27.227Z,101192.31
2023-03-17T09:07:54.325Z,101196.75
2023-03-17T09:39:40.493Z,101170.56
2023-03-17T09:42:43.393Z,101164.13
2023-03-17T09:52:05.546Z,101149.13
2023-03-17T09:54:38.202Z,101152.72
2023-03-17T10:00:36.072Z,101134.66
2023-03-17T10:03:03.568Z,101133.00
2023-03-17T10:05:36.399Z,101124.66
2023-03-17T10:08:31.711Z,101130.53
2023-03-17T10:51:11.702Z,101094.06
2023-03-17T10:56:42.361Z,101097.72
2023-03-17T11:02:22.909Z,101105.88
2023-03-17T11:07:45.332Z,101091.53
2023-03-17T11:10:25.165Z,101098.63
2023-03-17T11:13:02.561Z,101092.34
2023-03-17T11:15:37.684Z,101091.53
2023-03-17T11:18:28.160Z,101087.00
2023-03-17T11:21:32.136Z,101081.59
2023-03-17T11:24:33.284Z,101078.84
2023-03-17T11:27:06.896Z,101085.91
2023-03-17T11:29:52.553Z,101083.16
2023-03-17T12:00:34.803Z,101010.22
2023-03-17T12:03:27.771Z,101022.06
2023-03-17T12:09:18.600Z,101026.53
2023-03-17T12:11:46.732Z,101007.47
2023-03-17T12:14:19.351Z,101011.75
2023-03-17T12:33:04.817Z,101008.22
2023-03-17T12:35:38.718Z,101010.72
2023-03-17T12:38:17.906Z,101011.66
2023-03-17T12:41:01.557Z,101011.47
2023-03-17T12:43:53.808Z,101008.56
2023-03-17T12:46:48.933Z,101002.97
2023-03-17T12:49:49.900Z,101000.78
2023-03-17T12:52:32.006Z,100994.97
2023-03-17T12:55:03.395Z,100994.50
2023-03-17T12:57:45.902Z,100995.72
2023-03-17T13:00:32.045Z,101007.06
2023-03-17T13:03:28.328Z,100981.25
2023-03-17T13:06:16.556Z,100987.94
2023-03-17T13:08:43.700Z,100981.66
2023-03-17T13:11:47.723Z,100988.50
2023-03-17T13:14:42.777Z,100975.78
2023-03-17T14:10:33.572Z,100927.34
2023-03-17T14:25:25.940Z,100911.63
2023-03-17T14:27:57.104Z,100912.22
2023-03-17T14:45:50.953Z,100890.00
2023-03-17T15:13:11.832Z,100891.09
2023-03-17T15:15:41.648Z,100876.69
2023-03-17T15:51:28.750Z,100863.75
2023-03-17T15:53:55.783Z,100865.69
2023-03-17T15:56:22.834Z,100875.41
2023-03-17T15:58:52.305Z,100876.97
2023-03-17T16:07:17.261Z,100892.63
2023-03-17T16:09:45.516Z,100905.22
2023-03-17T16:15:23.247Z,100901.69
2023-03-17T16:18:31.022Z,100902.88
2023-03-17T16:21:30.280Z,100882.47
2023-03-17T16:24:29.970Z,100884.09
2023-03-17T16:27:29.027Z,100880.22
2023-03-17T16:29:56.059Z,100885.69
2023-03-17T16:32:23.132Z,100880.19
2023-03-17T16:34:54.379Z,100885.25
2023-03-17T16:37:21.446Z,100875.94
2023-03-17T17:00:33.894Z,100898.69
2023-03-17T17:03:01.080Z,100897.72
2023-03-17T17:11:21.479Z,100890.53
2023-03-17T17:13:49.645Z,100892.41
2023-03-17T17:16:30.449Z,100884.28
2023-03-17T17:18:59.047Z,100888.75
2023-03-17T17:21:27.346Z,100880.69
2023-03-17T17:23:54.875Z,100878.50
2023-03-17T17:26:22.688Z,100879.06
2023-03-17T17:28:50.153Z,100880.59
2023-03-17T17:31:17.240Z,100891.00
2023-03-17T17:33:44.398Z,100892.75
2023-03-17T17:36:16.937Z,100895.72
2023-03-17T17:38:44.731Z,100899.50
2023-03-17T17:41:13.451Z,100909.38
2023-03-17T17:43:41.221Z,100912.91
2023-03-17T17:46:15.778Z,100910.31
2023-03-17T17:48:43.097Z,100905.94
2023-03-17T17:51:10.354Z,100902.75
2023-03-17T17:53:37.394Z,100901.22
2023-03-17T17:56:04.911Z,100895.47
2023-03-17T17:58:31.930Z,100903.59
2023-03-17T18:16:04.884Z,100900.91
2023-03-17T18:18:32.657Z,100896.63
2023-03-17T18:38:33.880Z,100897.56
2023-03-17T18:43:56.465Z,100909.44
2023-03-17T19:19:04.368Z,100904.03
2023-03-17T19:21:32.484Z,100896.34
2023-03-17T19:47:21.898Z,100883.09
2023-03-17T19:52:43.695Z,100883.31
2023-03-17T19:55:17.465Z,100878.72
2023-03-17T19:57:44.460Z,100885.03
2023-03-17T20:21:37.884Z,100877.63
2023-03-17T20:32:54.341Z,100875.56
2023-03-17T20:35:21.470Z,100890.38
2023-03-17T21:01:12.810Z,100863.81
2023-03-17T21:18:17.655Z,100862.84
2023-03-17T21:25:47.102Z,100857.75
2023-03-17T21:30:22.235Z,100846.16
2023-03-17T21:37:53.498Z,100864.38
2023-03-17T21:40:21.259Z,100854.28
2023-03-17T21:42:49.364Z,100856.25
2023-03-17T22:02:46.808Z,100883.81
2023-03-17T22:36:01.142Z,100885.56
2023-03-17T22:39:00.028Z,100876.97
2023-03-17T22:41:29.760Z,100861.59
2023-03-17T22:55:36.654Z,100848.56
2023-03-17T22:58:04.211Z,100846.66
2023-03-17T23:50:42.498Z,100813.53
